Pays
Station

 

Conditions  météo  pour  Phoenix, Phoenix Sky Harbor International Airport  -  Etats-Unis    Etats-Unis

  
36 °C
    
 
 

METAR pour Phoenix, Phoenix Sky Harbor International Airport :

KPHX 260051Z VRB03KT 10SM SCT250 36/M07 A2981 RMK AO2 SLP077 T03561067

 

Voici le bulletin pour Phoenix, Phoenix Sky Harbor International Airport - Etats-Unis.
 
Le bulletin a été fait il y a 56 minutes, à 00:51 UTC .
Le vent soufflait à la vitesse de 1.5 mètres par seconde de direction variable.
 
La température était de 36 °C, avec un point de rosée à -7 °C.
La température ressentie était de 33 °C.
 
La pression atmosphérique était de 1009 hPa.
L'humidité relative était de 6.1%.
 
Il y avait 3 à 4/8ème de nébulosité à une hauteur de 7620 mètres.
 
La visibilité globale était de 16.1 kilomètres.
 

 
 
 

Pays :   A   B   C   D   E   F   G   H   I   J   K   L   M   N   O   P   Q   R   S   T   U   V   W   Y   Z

 

Partenaires :  Info Météo avec Met'info
Météo Marine avec MeteoMarine.net
Infos Site  |  Infos Légales  |  Crédits  |  Confidentialité
Contactez-nous  |  Ajouter aux favoris
© 2013-2018 METAR - Tous droits réservés